sensor_id;sensor_type;location;lat;lon;timestamp;pressure;altitude;pressure_sealevel;temperature;humidity
59073;BME280;44859;51.934;15.554;2022-08-03T00:01:11;99888.92;;;19.71;57.58
59073;BME280;44859;51.934;15.554;2022-08-03T00:03:44;99889.08;;;19.71;57.39
59073;BME280;44859;51.934;15.554;2022-08-03T00:06:23;99891.66;;;19.70;57.24
59073;BME280;44859;51.934;15.554;2022-08-03T00:09:04;99893.28;;;19.68;57.08
59073;BME280;44859;51.934;15.554;2022-08-03T00:11:44;99894.52;;;19.68;56.93
59073;BME280;44859;51.934;15.554;2022-08-03T00:14:19;99895.74;;;19.66;56.75
59073;BME280;44859;51.934;15.554;2022-08-03T00:16:46;99894.96;;;19.65;56.88
59073;BME280;44859;51.934;15.554;2022-08-03T00:19:22;99893.17;;;19.63;57.11
59073;BME280;44859;51.934;15.554;2022-08-03T00:21:51;99890.13;;;19.59;57.19
59073;BME280;44859;51.934;15.554;2022-08-03T00:24:24;99889.09;;;19.52;57.24
59073;BME280;44859;51.934;15.554;2022-08-03T00:26:57;99890.38;;;19.48;57.22
59073;BME280;44859;51.934;15.554;2022-08-03T00:29:24;99890.81;;;19.42;57.35
59073;BME280;44859;51.934;15.554;2022-08-03T00:31:54;99883.42;;;19.39;57.29
59073;BME280;44859;51.934;15.554;2022-08-03T00:34:29;99883.59;;;19.37;57.55
59073;BME280;44859;51.934;15.554;2022-08-03T00:37:19;99885.00;;;19.33;57.58
59073;BME280;44859;51.934;15.554;2022-08-03T00:39:53;99885.23;;;19.28;57.57
59073;BME280;44859;51.934;15.554;2022-08-03T00:42:28;99886.17;;;19.23;57.91
59073;BME280;44859;51.934;15.554;2022-08-03T00:44:55;99886.50;;;19.19;58.04
59073;BME280;44859;51.934;15.554;2022-08-03T00:47:24;99881.25;;;19.14;58.21
59073;BME280;44859;51.934;15.554;2022-08-03T00:49:53;99877.31;;;19.10;58.29
59073;BME280;44859;51.934;15.554;2022-08-03T00:52:20;99873.58;;;19.10;58.35
59073;BME280;44859;51.934;15.554;2022-08-03T00:54:50;99872.16;;;19.10;58.47
59073;BME280;44859;51.934;15.554;2022-08-03T00:57:23;99869.45;;;19.10;58.27
59073;BME280;44859;51.934;15.554;2022-08-03T00:59:53;99873.46;;;19.07;58.65
59073;BME280;44859;51.934;15.554;2022-08-03T01:02:21;99874.49;;;19.03;58.65
59073;BME280;44859;51.934;15.554;2022-08-03T01:04:48;99874.39;;;19.00;58.81
59073;BME280;44859;51.934;15.554;2022-08-03T01:07:31;99871.95;;;18.97;58.81
59073;BME280;44859;51.934;15.554;2022-08-03T01:13:02;99876.20;;;18.93;59.06
59073;BME280;44859;51.934;15.554;2022-08-03T01:16:11;99872.14;;;18.93;59.20
59073;BME280;44859;51.934;15.554;2022-08-03T01:19:01;99869.95;;;18.93;59.02
59073;BME280;44859;51.934;15.554;2022-08-03T01:21:47;99870.14;;;18.93;59.42
59073;BME280;44859;51.934;15.554;2022-08-03T01:24:34;99864.36;;;18.90;59.53
59073;BME280;44859;51.934;15.554;2022-08-03T01:27:28;99866.38;;;18.87;59.84
59073;BME280;44859;51.934;15.554;2022-08-03T01:30:10;99869.03;;;18.85;59.61
59073;BME280;44859;51.934;15.554;2022-08-03T01:35:47;99863.77;;;18.84;59.87
59073;BME280;44859;51.934;15.554;2022-08-03T01:38:41;99860.91;;;18.84;60.06
59073;BME280;44859;51.934;15.554;2022-08-03T01:41:17;99859.44;;;18.82;60.08
59073;BME280;44859;51.934;15.554;2022-08-03T01:43:49;99858.17;;;18.80;60.01
59073;BME280;44859;51.934;15.554;2022-08-03T01:47:01;99852.31;;;18.76;60.23
59073;BME280;44859;51.934;15.554;2022-08-03T01:49:47;99851.09;;;18.71;60.60
59073;BME280;44859;51.934;15.554;2022-08-03T01:52:29;99852.60;;;18.68;60.73
59073;BME280;44859;51.934;15.554;2022-08-03T01:55:02;99849.66;;;18.66;60.66
59073;BME280;44859;51.934;15.554;2022-08-03T01:57:47;99852.48;;;18.67;60.76
59073;BME280;44859;51.934;15.554;2022-08-03T02:00:39;99855.39;;;18.66;61.02
59073;BME280;44859;51.934;15.554;2022-08-03T02:03:12;99849.88;;;18.64;61.13
59073;BME280;44859;51.934;15.554;2022-08-03T02:05:40;99852.63;;;18.63;60.91
59073;BME280;44859;51.934;15.554;2022-08-03T02:08:11;99854.38;;;18.59;61.27
59073;BME280;44859;51.934;15.554;2022-08-03T02:10:40;99849.08;;;18.54;61.44
59073;BME280;44859;51.934;15.554;2022-08-03T02:13:13;99853.14;;;18.52;61.54
59073;BME280;44859;51.934;15.554;2022-08-03T02:15:41;99849.39;;;18.55;61.44
59073;BME280;44859;51.934;15.554;2022-08-03T02:18:09;99846.03;;;18.57;61.33
59073;BME280;44859;51.934;15.554;2022-08-03T02:20:45;99847.90;;;18.58;61.56
59073;BME280;44859;51.934;15.554;2022-08-03T02:23:15;99841.89;;;18.55;61.44
59073;BME280;44859;51.934;15.554;2022-08-03T02:25:47;99843.90;;;18.52;61.76
59073;BME280;44859;51.934;15.554;2022-08-03T02:28:21;99840.52;;;18.53;61.82
59073;BME280;44859;51.934;15.554;2022-08-03T02:30:56;99839.40;;;18.53;61.83
59073;BME280;44859;51.934;15.554;2022-08-03T02:33:30;99842.67;;;18.52;61.90
59073;BME280;44859;51.934;15.554;2022-08-03T02:36:00;99840.35;;;18.48;61.75
59073;BME280;44859;51.934;15.554;2022-08-03T02:38:35;99836.80;;;18.43;61.96
59073;BME280;44859;51.934;15.554;2022-08-03T02:41:06;99831.31;;;18.39;62.26
59073;BME280;44859;51.934;15.554;2022-08-03T02:43:36;99829.59;;;18.36;62.08
59073;BME280;44859;51.934;15.554;2022-08-03T02:46:32;99834.55;;;18.34;62.20
59073;BME280;44859;51.934;15.554;2022-08-03T02:49:04;99834.70;;;18.30;62.64
59073;BME280;44859;51.934;15.554;2022-08-03T02:51:55;99834.70;;;18.23;62.52
59073;BME280;44859;51.934;15.554;2022-08-03T02:54:24;99833.35;;;18.15;62.72
59073;BME280;44859;51.934;15.554;2022-08-03T02:56:53;99838.01;;;18.11;63.04
59073;BME280;44859;51.934;15.554;2022-08-03T02:59:23;99835.02;;;18.06;62.98
59073;BME280;44859;51.934;15.554;2022-08-03T03:01:57;99838.52;;;18.00;63.47
59073;BME280;44859;51.934;15.554;2022-08-03T03:04:27;99841.69;;;17.93;63.44
59073;BME280;44859;51.934;15.554;2022-08-03T03:07:01;99843.70;;;17.87;63.40
59073;BME280;44859;51.934;15.554;2022-08-03T03:09:36;99843.83;;;17.79;63.79
59073;BME280;44859;51.934;15.554;2022-08-03T03:12:12;99849.39;;;17.67;64.07
59073;BME280;44859;51.934;15.554;2022-08-03T03:14:39;99852.56;;;17.55;64.51
59073;BME280;44859;51.934;15.554;2022-08-03T03:17:10;99850.76;;;17.37;64.89
59073;BME280;44859;51.934;15.554;2022-08-03T03:19:41;99851.55;;;17.19;65.55
59073;BME280;44859;51.934;15.554;2022-08-03T03:22:11;99852.68;;;17.11;65.66
59073;BME280;44859;51.934;15.554;2022-08-03T03:24:59;99853.49;;;17.03;65.85
59073;BME280;44859;51.934;15.554;2022-08-03T03:27:30;99852.26;;;16.96;66.40
59073;BME280;44859;51.934;15.554;2022-08-03T03:30:00;99850.19;;;16.87;66.60
59073;BME280;44859;51.934;15.554;2022-08-03T03:32:32;99853.87;;;16.76;67.23
59073;BME280;44859;51.934;15.554;2022-08-03T03:35:11;99851.75;;;16.71;67.22
59073;BME280;44859;51.934;15.554;2022-08-03T03:37:44;99854.14;;;16.67;67.51
59073;BME280;44859;51.934;15.554;2022-08-03T03:40:12;99855.38;;;16.63;67.85
59073;BME280;44859;51.934;15.554;2022-08-03T03:42:43;99855.73;;;16.55;68.24
59073;BME280;44859;51.934;15.554;2022-08-03T03:45:17;99861.62;;;16.52;68.27
59073;BME280;44859;51.934;15.554;2022-08-03T03:47:55;99862.66;;;16.55;68.57
59073;BME280;44859;51.934;15.554;2022-08-03T03:50:26;99862.98;;;16.70;68.56
59073;BME280;44859;51.934;15.554;2022-08-03T03:56:04;99861.87;;;16.98;68.34
59073;BME280;44859;51.934;15.554;2022-08-03T03:58:34;99864.72;;;17.00;68.29
59073;BME280;44859;51.934;15.554;2022-08-03T04:01:05;99863.27;;;17.01;68.34
59073;BME280;44859;51.934;15.554;2022-08-03T04:03:32;99863.54;;;17.02;68.30
59073;BME280;44859;51.934;15.554;2022-08-03T04:06:12;99864.91;;;17.02;68.40
59073;BME280;44859;51.934;15.554;2022-08-03T04:09:00;99866.28;;;17.03;68.30
59073;BME280;44859;51.934;15.554;2022-08-03T04:11:53;99866.74;;;17.01;68.48
59073;BME280;44859;51.934;15.554;2022-08-03T04:14:34;99870.23;;;17.00;68.67
59073;BME280;44859;51.934;15.554;2022-08-03T04:17:22;99872.38;;;17.00;68.76
59073;BME280;44859;51.934;15.554;2022-08-03T04:19:56;99871.75;;;16.99;69.01
59073;BME280;44859;51.934;15.554;2022-08-03T04:22:57;99874.96;;;17.01;69.08
59073;BME280;44859;51.934;15.554;2022-08-03T04:25:32;99879.79;;;17.05;68.91
59073;BME280;44859;51.934;15.554;2022-08-03T04:28:02;99880.08;;;17.06;69.08
59073;BME280;44859;51.934;15.554;2022-08-03T04:30:52;99880.83;;;17.08;68.89
59073;BME280;44859;51.934;15.554;2022-08-03T04:33:25;99884.21;;;17.12;69.01
59073;BME280;44859;51.934;15.554;2022-08-03T04:36:00;99884.21;;;17.22;69.19
59073;BME280;44859;51.934;15.554;2022-08-03T04:38:36;99884.63;;;17.33;69.05
59073;BME280;44859;51.934;15.554;2022-08-03T04:41:08;99879.63;;;17.45;68.77
59073;BME280;44859;51.934;15.554;2022-08-03T04:43:37;99880.46;;;17.57;68.51
59073;BME280;44859;51.934;15.554;2022-08-03T04:46:17;99878.97;;;17.70;68.28
59073;BME280;44859;51.934;15.554;2022-08-03T04:48:49;99884.21;;;17.83;68.00
59073;BME280;44859;51.934;15.554;2022-08-03T04:51:23;99884.00;;;17.90;67.68
59073;BME280;44859;51.934;15.554;2022-08-03T04:53:51;99881.66;;;17.95;67.77
59073;BME280;44859;51.934;15.554;2022-08-03T04:56:19;99885.96;;;18.02;67.81
59073;BME280;44859;51.934;15.554;2022-08-03T04:58:49;99884.38;;;18.13;67.51
59073;BME280;44859;51.934;15.554;2022-08-03T05:01:26;99886.24;;;18.30;67.45
59073;BME280;44859;51.934;15.554;2022-08-03T05:03:56;99881.13;;;18.49;67.28
59073;BME280;44859;51.934;15.554;2022-08-03T05:06:36;99883.20;;;18.70;66.81
59073;BME280;44859;51.934;15.554;2022-08-03T05:09:16;99885.46;;;18.91;66.61
59073;BME280;44859;51.934;15.554;2022-08-03T05:12:04;99882.99;;;19.10;66.11
59073;BME280;44859;51.934;15.554;2022-08-03T05:14:33;99885.95;;;19.28;65.43
59073;BME280;44859;51.934;15.554;2022-08-03T05:17:02;99882.26;;;19.45;65.22
59073;BME280;44859;51.934;15.554;2022-08-03T05:19:38;99885.77;;;19.58;64.71
59073;BME280;44859;51.934;15.554;2022-08-03T05:22:36;99887.10;;;19.71;64.19
59073;BME280;44859;51.934;15.554;2022-08-03T05:29:27;99888.20;;;20.25;63.05
59073;BME280;44859;51.934;15.554;2022-08-03T05:32:17;99887.64;;;20.48;62.51
59073;BME280;44859;51.934;15.554;2022-08-03T05:35:17;99890.96;;;20.81;61.86
59073;BME280;44859;51.934;15.554;2022-08-03T05:38:26;99897.35;;;21.24;60.99
59073;BME280;44859;51.934;15.554;2022-08-03T05:41:51;99895.27;;;21.69;59.96
59073;BME280;44859;51.934;15.554;2022-08-03T05:44:51;99887.59;;;22.31;58.64
59073;BME280;44859;51.934;15.554;2022-08-03T05:47:18;99890.55;;;22.84;57.48
59073;BME280;44859;51.934;15.554;2022-08-03T05:49:45;99888.30;;;23.25;56.52
59073;BME280;44859;51.934;15.554;2022-08-03T05:52:12;99893.52;;;23.69;55.63
59073;BME280;44859;51.934;15.554;2022-08-03T05:55:06;99888.12;;;24.18;54.70
59073;BME280;44859;51.934;15.554;2022-08-03T05:57:53;99890.52;;;24.66;53.17
59073;BME280;44859;51.934;15.554;2022-08-03T06:00:22;99890.11;;;25.08;52.44
59073;BME280;44859;51.934;15.554;2022-08-03T06:02:54;99891.13;;;25.43;51.28
59073;BME280;44859;51.934;15.554;2022-08-03T06:05:24;99890.09;;;25.66;50.09
59073;BME280;44859;51.934;15.554;2022-08-03T06:07:53;99886.70;;;25.84;48.94
59073;BME280;44859;51.934;15.554;2022-08-03T06:19:06;99885.14;;;26.65;46.22
59073;BME280;44859;51.934;15.554;2022-08-03T06:21:39;99886.91;;;26.89;45.62
59073;BME280;44859;51.934;15.554;2022-08-03T06:24:07;99887.98;;;27.34;45.34
59073;BME280;44859;51.934;15.554;2022-08-03T06:39:29;99897.20;;;27.82;41.35
59073;BME280;44859;51.934;15.554;2022-08-03T06:42:20;99898.30;;;27.94;40.61
59073;BME280;44859;51.934;15.554;2022-08-03T06:45:22;99899.42;;;28.05;39.68
59073;BME280;44859;51.934;15.554;2022-08-03T06:48:10;99896.98;;;28.01;39.54
59073;BME280;44859;51.934;15.554;2022-08-03T06:50:40;99896.77;;;28.23;39.67
59073;BME280;44859;51.934;15.554;2022-08-03T06:53:10;99897.27;;;28.36;39.13
59073;BME280;44859;51.934;15.554;2022-08-03T06:55:59;99902.48;;;28.55;38.60
59073;BME280;44859;51.934;15.554;2022-08-03T06:58:27;99901.67;;;28.71;38.50
59073;BME280;44859;51.934;15.554;2022-08-03T07:01:03;99899.29;;;28.80;38.46
59073;BME280;44859;51.934;15.554;2022-08-03T07:03:30;99903.86;;;28.90;38.35
59073;BME280;44859;51.934;15.554;2022-08-03T07:06:22;99902.46;;;28.99;38.03
59073;BME280;44859;51.934;15.554;2022-08-03T07:08:49;99900.95;;;29.07;37.53
59073;BME280;44859;51.934;15.554;2022-08-03T07:11:21;99898.39;;;29.28;37.16
59073;BME280;44859;51.934;15.554;2022-08-03T07:13:48;99903.92;;;29.39;36.73
59073;BME280;44859;51.934;15.554;2022-08-03T07:16:15;99904.52;;;29.51;36.63
59073;BME280;44859;51.934;15.554;2022-08-03T07:18:51;99905.13;;;29.49;35.96
59073;BME280;44859;51.934;15.554;2022-08-03T07:21:21;99908.14;;;29.39;35.35
59073;BME280;44859;51.934;15.554;2022-08-03T07:23:50;99905.05;;;29.23;35.38
59073;BME280;44859;51.934;15.554;2022-08-03T07:26:20;99904.95;;;28.89;35.53
59073;BME280;44859;51.934;15.554;2022-08-03T07:28:47;99907.70;;;28.82;35.32
59073;BME280;44859;51.934;15.554;2022-08-03T07:31:14;99905.30;;;28.81;35.28
59073;BME280;44859;51.934;15.554;2022-08-03T07:33:41;99905.52;;;28.76;35.04
59073;BME280;44859;51.934;15.554;2022-08-03T07:36:10;99904.84;;;28.76;34.94
59073;BME280;44859;51.934;15.554;2022-08-03T07:38:41;99905.05;;;28.81;34.63
59073;BME280;44859;51.934;15.554;2022-08-03T07:41:11;99906.16;;;28.99;34.59
59073;BME280;44859;51.934;15.554;2022-08-03T07:43:40;99901.27;;;29.19;34.27
59073;BME280;44859;51.934;15.554;2022-08-03T07:46:08;99899.45;;;29.38;34.22
59073;BME280;44859;51.934;15.554;2022-08-03T07:48:38;99903.73;;;29.28;33.67
59073;BME280;44859;51.934;15.554;2022-08-03T07:51:05;99900.66;;;29.11;33.31
59073;BME280;44859;51.934;15.554;2022-08-03T07:53:35;99901.00;;;29.01;33.27
59073;BME280;44859;51.934;15.554;2022-08-03T07:56:18;99897.95;;;29.09;32.68
59073;BME280;44859;51.934;15.554;2022-08-03T07:58:49;99896.38;;;29.41;32.68
59073;BME280;44859;51.934;15.554;2022-08-03T08:01:16;99894.96;;;29.61;32.52
59073;BME280;44859;51.934;15.554;2022-08-03T08:03:49;99897.74;;;29.66;31.22
59073;BME280;44859;51.934;15.554;2022-08-03T08:06:21;99892.77;;;29.70;30.28
59073;BME280;44859;51.934;15.554;2022-08-03T08:08:50;99893.97;;;29.53;29.84
59073;BME280;44859;51.934;15.554;2022-08-03T08:11:19;99892.77;;;29.65;29.91
59073;BME280;44859;51.934;15.554;2022-08-03T08:13:47;99896.98;;;29.83;29.18
59073;BME280;44859;51.934;15.554;2022-08-03T08:16:16;99896.91;;;29.88;29.14
59073;BME280;44859;51.934;15.554;2022-08-03T08:18:43;99891.48;;;30.09;28.72
59073;BME280;44859;51.934;15.554;2022-08-03T08:21:10;99891.73;;;30.28;28.20
59073;BME280;44859;51.934;15.554;2022-08-03T08:23:38;99892.05;;;30.44;28.10
59073;BME280;44859;51.934;15.554;2022-08-03T08:26:10;99889.69;;;30.49;28.30
59073;BME280;44859;51.934;15.554;2022-08-03T08:28:38;99887.11;;;30.77;28.44
59073;BME280;44859;51.934;15.554;2022-08-03T08:31:05;99884.20;;;31.15;28.01
59073;BME280;44859;51.934;15.554;2022-08-03T08:33:35;99888.88;;;31.36;28.00
59073;BME280;44859;51.934;15.554;2022-08-03T08:36:25;99883.73;;;31.70;27.23
59073;BME280;44859;51.934;15.554;2022-08-03T08:38:52;99886.59;;;31.68;26.52
59073;BME280;44859;51.934;15.554;2022-08-03T08:41:19;99887.99;;;31.37;26.87
59073;BME280;44859;51.934;15.554;2022-08-03T08:43:49;99885.60;;;31.33;27.01
59073;BME280;44859;51.934;15.554;2022-08-03T08:46:29;99882.63;;;31.35;27.55
59073;BME280;44859;51.934;15.554;2022-08-03T08:48:59;99884.67;;;31.33;27.34
59073;BME280;44859;51.934;15.554;2022-08-03T08:51:33;99884.00;;;31.32;27.68
59073;BME280;44859;51.934;15.554;2022-08-03T08:54:45;99882.27;;;31.05;27.79
59073;BME280;44859;51.934;15.554;2022-08-03T08:57:20;99885.52;;;30.46;28.53
59073;BME280;44859;51.934;15.554;2022-08-03T09:00:09;99891.23;;;29.89;29.58
59073;BME280;44859;51.934;15.554;2022-08-03T09:02:43;99891.15;;;29.65;29.97
59073;BME280;44859;51.934;15.554;2022-08-03T09:05:13;99894.86;;;29.30;30.18
59073;BME280;44859;51.934;15.554;2022-08-03T09:07:42;99889.16;;;29.26;30.31
59073;BME280;44859;51.934;15.554;2022-08-03T09:10:11;99888.73;;;29.34;30.82
59073;BME280;44859;51.934;15.554;2022-08-03T09:12:45;99890.95;;;29.52;30.71
59073;BME280;44859;51.934;15.554;2022-08-03T09:15:24;99892.09;;;29.86;30.87
59073;BME280;44859;51.934;15.554;2022-08-03T09:17:54;99885.95;;;30.38;30.12
59073;BME280;44859;51.934;15.554;2022-08-03T09:20:23;99875.67;;;30.74;29.50
59073;BME280;44859;51.934;15.554;2022-08-03T09:22:59;99876.04;;;30.98;29.96
59073;BME280;44859;51.934;15.554;2022-08-03T09:28:16;99872.18;;;31.64;29.47
59073;BME280;44859;51.934;15.554;2022-08-03T09:31:06;99870.15;;;31.44;29.68
59073;BME280;44859;51.934;15.554;2022-08-03T09:33:46;99868.69;;;31.45;29.94
59073;BME280;44859;51.934;15.554;2022-08-03T09:36:34;99866.56;;;31.50;29.56
59073;BME280;44859;51.934;15.554;2022-08-03T09:39:13;99862.58;;;31.67;29.72
59073;BME280;44859;51.934;15.554;2022-08-03T09:42:03;99861.99;;;31.67;29.56
59073;BME280;44859;51.934;15.554;2022-08-03T09:44:36;99864.67;;;31.72;29.76
59073;BME280;44859;51.934;15.554;2022-08-03T09:47:13;99868.04;;;31.65;29.71
59073;BME280;44859;51.934;15.554;2022-08-03T09:49:56;99864.64;;;31.53;29.58
59073;BME280;44859;51.934;15.554;2022-08-03T09:52:31;99861.42;;;31.12;30.42
59073;BME280;44859;51.934;15.554;2022-08-03T09:55:17;99859.30;;;31.40;30.26
59073;BME280;44859;51.934;15.554;2022-08-03T09:58:07;99860.06;;;31.42;30.28
59073;BME280;44859;51.934;15.554;2022-08-03T10:01:10;99858.17;;;31.49;30.30
59073;BME280;44859;51.934;15.554;2022-08-03T10:03:57;99861.17;;;31.60;30.22
59073;BME280;44859;51.934;15.554;2022-08-03T10:06:31;99856.41;;;31.82;30.19
59073;BME280;44859;51.934;15.554;2022-08-03T10:09:09;99852.44;;;32.05;29.89
59073;BME280;44859;51.934;15.554;2022-08-03T10:11:38;99852.61;;;32.07;29.77
59073;BME280;44859;51.934;15.554;2022-08-03T10:14:12;99852.54;;;32.09;29.77
59073;BME280;44859;51.934;15.554;2022-08-03T10:16:46;99848.73;;;32.21;29.53
59073;BME280;44859;51.934;15.554;2022-08-03T10:19:16;99845.16;;;32.14;29.46
59073;BME280;44859;51.934;15.554;2022-08-03T10:21:49;99847.85;;;32.21;29.26
59073;BME280;44859;51.934;15.554;2022-08-03T10:24:24;99848.27;;;32.50;29.21
59073;BME280;44859;51.934;15.554;2022-08-03T10:27:13;99847.61;;;32.69;28.99
59073;BME280;44859;51.934;15.554;2022-08-03T10:29:44;99850.18;;;32.75;28.60
59073;BME280;44859;51.934;15.554;2022-08-03T10:32:17;99848.11;;;32.62;28.36
59073;BME280;44859;51.934;15.554;2022-08-03T10:34:49;99846.11;;;32.49;29.16
59073;BME280;44859;51.934;15.554;2022-08-03T10:37:31;99844.98;;;32.65;28.93
59073;BME280;44859;51.934;15.554;2022-08-03T10:39:59;99837.56;;;32.94;28.64
59073;BME280;44859;51.934;15.554;2022-08-03T10:42:29;99838.15;;;32.99;28.38
59073;BME280;44859;51.934;15.554;2022-08-03T10:45:05;99840.05;;;32.98;28.54
59073;BME280;44859;51.934;15.554;2022-08-03T10:47:34;99829.08;;;33.11;28.77
59073;BME280;44859;51.934;15.554;2022-08-03T10:50:05;99826.08;;;33.27;28.59
59073;BME280;44859;51.934;15.554;2022-08-03T10:52:33;99832.29;;;33.32;28.86
59073;BME280;44859;51.934;15.554;2022-08-03T10:55:43;99832.23;;;33.32;27.77
59073;BME280;44859;51.934;15.554;2022-08-03T11:04:30;99824.34;;;32.58;28.15
59073;BME280;44859;51.934;15.554;2022-08-03T11:09:45;99824.42;;;31.62;29.51
59073;BME280;44859;51.934;15.554;2022-08-03T11:12:24;99822.64;;;31.45;29.21
59073;BME280;44859;51.934;15.554;2022-08-03T11:15:04;99816.08;;;31.12;29.74
59073;BME280;44859;51.934;15.554;2022-08-03T11:18:07;99812.75;;;30.82;30.26
59073;BME280;44859;51.934;15.554;2022-08-03T11:20:48;99814.67;;;30.60;30.74
59073;BME280;44859;51.934;15.554;2022-08-03T11:23:18;99814.07;;;30.50;30.86
59073;BME280;44859;51.934;15.554;2022-08-03T11:26:16;99816.64;;;30.58;31.31
59073;BME280;44859;51.934;15.554;2022-08-03T11:28:47;99813.08;;;31.07;31.50
59073;BME280;44859;51.934;15.554;2022-08-03T11:34:09;99806.60;;;32.39;29.41
59073;BME280;44859;51.934;15.554;2022-08-03T11:39:45;99805.23;;;33.05;28.60
59073;BME280;44859;51.934;15.554;2022-08-03T11:44:57;99807.73;;;33.36;28.07
59073;BME280;44859;51.934;15.554;2022-08-03T11:47:27;99806.21;;;33.46;28.15
59073;BME280;44859;51.934;15.554;2022-08-03T11:49:57;99806.52;;;33.54;27.86
59073;BME280;44859;51.934;15.554;2022-08-03T11:52:40;99802.86;;;33.62;27.50
59073;BME280;44859;51.934;15.554;2022-08-03T11:55:10;99802.77;;;33.28;27.59
59073;BME280;44859;51.934;15.554;2022-08-03T11:57:38;99805.50;;;33.27;27.56
59073;BME280;44859;51.934;15.554;2022-08-03T12:00:30;99803.45;;;33.20;26.98
59073;BME280;44859;51.934;15.554;2022-08-03T12:03:11;99797.63;;;32.70;27.30
59073;BME280;44859;51.934;15.554;2022-08-03T12:05:51;99791.08;;;32.27;27.87
59073;BME280;44859;51.934;15.554;2022-08-03T12:10:53;99783.41;;;32.47;28.37
59073;BME280;44859;51.934;15.554;2022-08-03T12:13:24;99781.00;;;32.91;28.61
59073;BME280;44859;51.934;15.554;2022-08-03T12:16:19;99782.27;;;33.38;27.95
59073;BME280;44859;51.934;15.554;2022-08-03T12:19:00;99781.48;;;33.67;27.47
59073;BME280;44859;51.934;15.554;2022-08-03T12:21:28;99775.17;;;33.72;27.06
59073;BME280;44859;51.934;15.554;2022-08-03T12:23:57;99779.55;;;33.58;27.12
59073;BME280;44859;51.934;15.554;2022-08-03T12:26:29;99775.72;;;33.28;27.12
59073;BME280;44859;51.934;15.554;2022-08-03T12:29:02;99774.92;;;33.02;27.50
59073;BME280;44859;51.934;15.554;2022-08-03T12:31:29;99772.55;;;33.10;26.97
59073;BME280;44859;51.934;15.554;2022-08-03T12:34:03;99776.48;;;33.05;26.92
59073;BME280;44859;51.934;15.554;2022-08-03T12:36:33;99772.31;;;32.98;26.74
59073;BME280;44859;51.934;15.554;2022-08-03T12:39:07;99765.46;;;32.56;26.97
59073;BME280;44859;51.934;15.554;2022-08-03T12:41:39;99770.16;;;32.15;27.45
59073;BME280;44859;51.934;15.554;2022-08-03T12:44:09;99769.30;;;31.95;27.63
59073;BME280;44859;51.934;15.554;2022-08-03T12:46:40;99764.32;;;31.67;27.54
59073;BME280;44859;51.934;15.554;2022-08-03T12:49:15;99759.91;;;31.20;28.10
59073;BME280;44859;51.934;15.554;2022-08-03T12:54:23;99763.42;;;30.96;28.83
59073;BME280;44859;51.934;15.554;2022-08-03T12:57:00;99759.52;;;31.00;29.11
59073;BME280;44859;51.934;15.554;2022-08-03T12:59:32;99758.04;;;31.39;28.96
59073;BME280;44859;51.934;15.554;2022-08-03T13:02:22;99753.30;;;31.94;28.62
59073;BME280;44859;51.934;15.554;2022-08-03T13:04:53;99756.16;;;32.17;28.24
59073;BME280;44859;51.934;15.554;2022-08-03T13:07:24;99754.77;;;32.08;28.22
59073;BME280;44859;51.934;15.554;2022-08-03T13:09:54;99757.27;;;31.97;28.36
59073;BME280;44859;51.934;15.554;2022-08-03T13:12:26;99752.94;;;31.93;28.28
59073;BME280;44859;51.934;15.554;2022-08-03T13:14:58;99751.02;;;31.72;28.14
59073;BME280;44859;51.934;15.554;2022-08-03T13:17:25;99748.66;;;31.59;28.33
59073;BME280;44859;51.934;15.554;2022-08-03T13:19:56;99749.10;;;31.61;28.36
59073;BME280;44859;51.934;15.554;2022-08-03T13:22:26;99747.23;;;31.84;28.05
59073;BME280;44859;51.934;15.554;2022-08-03T13:25:02;99745.02;;;32.17;27.67
59073;BME280;44859;51.934;15.554;2022-08-03T13:27:30;99738.80;;;32.36;27.62
59073;BME280;44859;51.934;15.554;2022-08-03T13:30:24;99742.08;;;32.53;27.23
59073;BME280;44859;51.934;15.554;2022-08-03T13:32:56;99739.54;;;32.77;27.30
59073;BME280;44859;51.934;15.554;2022-08-03T13:35:25;99742.48;;;32.81;26.59
59073;BME280;44859;51.934;15.554;2022-08-03T13:37:52;99738.47;;;32.62;27.02
59073;BME280;44859;51.934;15.554;2022-08-03T13:40:22;99741.34;;;32.29;26.77
59073;BME280;44859;51.934;15.554;2022-08-03T13:42:57;99741.67;;;32.14;27.39
59073;BME280;44859;51.934;15.554;2022-08-03T13:45:27;99740.25;;;32.34;27.09
59073;BME280;44859;51.934;15.554;2022-08-03T13:47:54;99733.36;;;32.52;26.72
59073;BME280;44859;51.934;15.554;2022-08-03T13:50:21;99734.90;;;32.46;26.91
59073;BME280;44859;51.934;15.554;2022-08-03T13:52:48;99735.77;;;32.70;26.59
59073;BME280;44859;51.934;15.554;2022-08-03T13:55:15;99736.61;;;33.05;26.26
59073;BME280;44859;51.934;15.554;2022-08-03T13:57:45;99733.93;;;33.34;26.14
59073;BME280;44859;51.934;15.554;2022-08-03T14:00:35;99724.86;;;33.50;26.12
59073;BME280;44859;51.934;15.554;2022-08-03T14:03:11;99727.19;;;33.35;25.84
59073;BME280;44859;51.934;15.554;2022-08-03T14:05:44;99726.63;;;32.72;26.35
59073;BME280;44859;51.934;15.554;2022-08-03T14:08:20;99728.73;;;32.27;26.56
59073;BME280;44859;51.934;15.554;2022-08-03T14:10:47;99724.98;;;32.24;26.68
59073;BME280;44859;51.934;15.554;2022-08-03T14:13:14;99719.55;;;32.42;26.87
59073;BME280;44859;51.934;15.554;2022-08-03T14:15:45;99718.44;;;32.65;26.65
59073;BME280;44859;51.934;15.554;2022-08-03T14:18:19;99715.19;;;32.61;26.31
59073;BME280;44859;51.934;15.554;2022-08-03T14:21:02;99709.66;;;32.35;26.40
59073;BME280;44859;51.934;15.554;2022-08-03T14:23:42;99713.27;;;32.18;26.95
59073;BME280;44859;51.934;15.554;2022-08-03T14:26:11;99711.55;;;32.20;26.90
59073;BME280;44859;51.934;15.554;2022-08-03T14:28:40;99712.77;;;32.19;26.58
59073;BME280;44859;51.934;15.554;2022-08-03T14:31:07;99713.17;;;32.14;26.85
59073;BME280;44859;51.934;15.554;2022-08-03T14:33:41;99712.57;;;32.12;26.68